createdAt,value
2019-04-30T00:00:39.092Z,45.90
2019-04-30T00:28:47.677Z,42.33
2019-04-30T00:37:59.909Z,45.73
2019-04-30T00:42:04.930Z,47.60
2019-04-30T01:05:05.251Z,48.13
2019-04-30T01:09:09.549Z,45.77
2019-04-30T01:13:16.462Z,46.10
2019-04-30T01:17:23.499Z,47.90
2019-04-30T01:21:50.954Z,51.60
2019-04-30T01:25:59.244Z,45.53
2019-04-30T01:30:13.364Z,45.97
2019-04-30T01:34:19.638Z,48.73
2019-04-30T01:38:31.571Z,47.90
2019-04-30T01:42:42.909Z,45.53
2019-04-30T01:46:50.202Z,47.60
2019-04-30T01:50:56.190Z,49.40
2019-04-30T01:55:08.466Z,44.10
2019-04-30T01:59:21.396Z,46.77
2019-04-30T02:03:31.830Z,44.50
2019-04-30T02:07:40.842Z,41.63
2019-04-30T02:11:48.693Z,43.37
2019-04-30T02:15:54.502Z,41.60
2019-04-30T02:20:04.898Z,47.27
2019-04-30T02:24:12.229Z,46.73
2019-04-30T02:28:19.163Z,45.83
2019-04-30T02:32:41.433Z,53.90
2019-04-30T02:37:03.975Z,38.47
2019-04-30T02:41:15.578Z,38.40
2019-04-30T02:50:10.236Z,34.57
2019-04-30T02:54:36.471Z,32.87
2019-04-30T02:58:44.044Z,31.87
2019-04-30T03:02:51.532Z,31.57
2019-04-30T03:06:59.999Z,34.50
2019-04-30T03:11:06.840Z,28.03
2019-04-30T03:15:12.676Z,26.73
2019-04-30T03:19:29.550Z,29.97
2019-04-30T03:23:35.073Z,33.53
2019-04-30T03:27:42.551Z,29.67
2019-04-30T03:41:09.783Z,35.73
2019-04-30T03:45:20.230Z,37.07
2019-04-30T03:53:59.727Z,36.93
2019-04-30T03:58:05.934Z,36.37
2019-04-30T04:02:23.822Z,34.53
2019-04-30T04:11:33.913Z,34.63
2019-04-30T04:15:43.428Z,29.80
2019-04-30T04:20:11.331Z,33.03
2019-04-30T04:24:16.789Z,33.77
2019-04-30T04:32:52.467Z,34.47
2019-04-30T04:37:03.567Z,33.33
2019-04-30T04:41:10.530Z,31.40
2019-04-30T04:49:21.390Z,34.87
2019-04-30T04:53:30.168Z,29.27
2019-04-30T04:57:40.024Z,32.37
2019-04-30T05:01:48.824Z,30.77
2019-04-30T05:06:02.604Z,29.63
2019-04-30T05:10:09.422Z,36.93
2019-04-30T05:14:19.005Z,32.87
2019-04-30T05:18:35.629Z,31.53
2019-04-30T05:22:45.824Z,35.00
2019-04-30T05:26:52.355Z,32.23
2019-04-30T05:31:03.613Z,29.57
2019-04-30T05:35:09.673Z,31.50
2019-04-30T05:39:16.184Z,51.80
2019-04-30T05:43:23.332Z,34.80
2019-04-30T05:47:30.776Z,35.37
2019-04-30T05:51:38.771Z,32.47
2019-04-30T05:55:45.544Z,32.43
2019-04-30T05:59:51.893Z,33.73
2019-04-30T06:03:59.554Z,29.77
2019-04-30T06:08:11.240Z,37.53
2019-04-30T06:12:32.378Z,35.13
2019-04-30T06:16:40.435Z,31.80
2019-04-30T06:20:48.629Z,35.10
2019-04-30T06:25:27.163Z,36.27
2019-04-30T06:29:23.123Z,33.60
2019-04-30T06:33:29.162Z,31.47
2019-04-30T06:37:40.779Z,36.13
2019-04-30T06:42:03.822Z,28.63
2019-04-30T06:46:24.076Z,31.63
2019-04-30T06:50:31.355Z,27.60
2019-04-30T06:54:39.786Z,21.23
2019-04-30T06:58:49.389Z,30.90
2019-04-30T07:02:59.123Z,35.83
2019-04-30T07:07:05.778Z,35.03
2019-04-30T07:11:25.089Z,28.57
2019-04-30T07:15:30.597Z,29.27
2019-04-30T07:19:53.159Z,21.83
2019-04-30T07:23:48.589Z,24.37
2019-04-30T07:27:59.814Z,23.77
2019-04-30T07:46:00.848Z,23.47
2019-04-30T07:50:10.630Z,24.10
2019-04-30T07:59:10.860Z,20.13
2019-04-30T08:03:32.683Z,22.27
2019-04-30T08:07:40.147Z,22.20
2019-04-30T08:11:49.294Z,23.67
2019-04-30T08:15:55.958Z,18.67
2019-04-30T08:29:56.604Z,20.77
2019-04-30T08:34:05.345Z,26.03
2019-04-30T08:38:11.096Z,23.17
2019-04-30T08:42:28.996Z,22.07
2019-04-30T08:46:28.677Z,22.80
2019-04-30T08:50:34.653Z,19.27
2019-04-30T08:54:42.804Z,23.30
2019-04-30T08:58:51.768Z,23.00
2019-04-30T09:02:59.399Z,20.57
2019-04-30T09:17:20.876Z,23.00
2019-04-30T09:21:26.332Z,22.00
2019-04-30T09:25:39.663Z,17.43
2019-04-30T09:34:21.081Z,18.93
2019-04-30T09:42:44.334Z,25.97
2019-04-30T09:51:10.719Z,21.97
2019-04-30T10:12:53.844Z,19.87
2019-04-30T10:17:09.653Z,18.83
2019-04-30T10:21:19.066Z,22.00
2019-04-30T10:25:25.444Z,15.03
2019-04-30T10:29:39.504Z,14.10
2019-04-30T11:05:56.123Z,18.00
2019-04-30T11:14:36.667Z,19.20
2019-04-30T11:18:48.602Z,18.30
2019-04-30T11:22:55.412Z,25.57
2019-04-30T11:27:04.459Z,14.17
2019-04-30T12:05:09.125Z,19.00
2019-04-30T12:09:34.732Z,13.77
2019-04-30T12:28:20.589Z,13.17
2019-04-30T12:37:34.479Z,13.13
2019-04-30T13:05:29.641Z,15.57
2019-04-30T13:09:36.000Z,18.67
2019-04-30T13:13:45.600Z,16.23
2019-04-30T13:17:52.025Z,16.83
2019-04-30T13:21:59.367Z,14.60
2019-04-30T13:46:39.984Z,17.53
2019-04-30T13:50:48.124Z,10.60
2019-04-30T13:54:58.731Z,17.63
2019-04-30T13:59:07.375Z,17.57
2019-04-30T14:03:24.167Z,16.47
2019-04-30T14:07:49.727Z,16.43
2019-04-30T14:12:38.422Z,16.70
2019-04-30T14:16:48.356Z,14.07
2019-04-30T14:21:00.840Z,19.80
2019-04-30T14:34:45.624Z,16.27
2019-04-30T14:38:54.811Z,19.30
2019-04-30T14:43:25.141Z,17.43
2019-04-30T14:47:43.296Z,15.73
2019-04-30T14:56:49.308Z,15.03
2019-04-30T15:35:21.779Z,12.23
2019-04-30T15:39:39.287Z,15.87
2019-04-30T15:43:50.884Z,18.67
2019-04-30T15:47:58.520Z,12.13
2019-04-30T15:52:08.991Z,18.83
2019-04-30T15:56:19.308Z,16.43
2019-04-30T16:00:33.442Z,14.07
2019-04-30T16:04:49.095Z,12.97
2019-04-30T16:08:59.501Z,15.80
2019-04-30T16:13:13.898Z,15.90
2019-04-30T16:17:44.694Z,15.27
2019-04-30T16:21:50.852Z,12.27
2019-04-30T16:25:59.736Z,15.20
2019-04-30T16:30:06.586Z,18.17
2019-04-30T16:34:13.237Z,18.87
2019-04-30T16:38:20.964Z,12.53
2019-04-30T16:42:29.091Z,17.73
2019-04-30T16:46:36.242Z,14.53
2019-04-30T16:50:42.753Z,17.13
2019-04-30T16:54:49.816Z,16.80
2019-04-30T16:59:02.396Z,16.07
2019-04-30T17:03:14.100Z,17.70
2019-04-30T17:16:39.149Z,20.27
2019-04-30T17:24:53.008Z,25.17
2019-04-30T17:29:02.067Z,18.57
2019-04-30T17:33:09.491Z,17.10
2019-04-30T17:37:19.019Z,18.20
2019-04-30T17:41:27.610Z,14.73
2019-04-30T17:45:36.487Z,13.90
2019-04-30T17:49:50.912Z,18.60
2019-04-30T17:54:18.962Z,16.00
2019-04-30T18:02:34.784Z,15.60
2019-04-30T18:10:53.350Z,19.50
2019-04-30T18:20:01.782Z,15.03
2019-04-30T18:24:29.473Z,14.23
2019-04-30T18:28:35.847Z,18.80
2019-04-30T18:32:42.094Z,19.37
2019-04-30T18:36:56.176Z,19.10
2019-04-30T18:41:02.336Z,19.67
2019-04-30T18:45:11.463Z,20.57
2019-04-30T18:49:19.657Z,17.27
2019-04-30T18:53:28.583Z,20.50
2019-04-30T18:57:35.698Z,23.03
2019-04-30T19:01:45.857Z,19.63
2019-04-30T19:05:52.549Z,23.37
2019-04-30T19:10:12.688Z,23.00
2019-04-30T19:14:39.706Z,25.77
2019-04-30T19:18:56.952Z,25.37
2019-04-30T19:27:39.610Z,23.00
2019-04-30T19:50:29.655Z,25.13
2019-04-30T19:54:39.184Z,23.00
2019-04-30T19:59:05.141Z,28.93
2019-04-30T20:03:19.585Z,29.23
2019-04-30T20:20:39.814Z,32.10
2019-04-30T20:24:46.150Z,24.13
2019-04-30T20:42:49.679Z,32.23
2019-04-30T20:46:55.833Z,34.93
2019-04-30T20:55:40.904Z,36.40
2019-04-30T20:59:50.039Z,30.83
2019-04-30T21:18:32.939Z,32.70
2019-04-30T21:22:42.167Z,27.87
2019-04-30T21:26:53.130Z,33.63
2019-04-30T22:23:35.422Z,31.30
2019-04-30T22:27:41.671Z,39.97
2019-04-30T22:31:51.925Z,59.93
2019-04-30T22:41:00.630Z,43.40
2019-04-30T22:54:00.408Z,38.50
2019-04-30T22:58:07.585Z,43.00
2019-04-30T23:02:23.117Z,37.47
2019-04-30T23:06:31.989Z,39.63
2019-04-30T23:15:23.115Z,50.37
2019-04-30T23:19:30.482Z,47.47
2019-04-30T23:23:41.007Z,47.77
